createdAt,value
2023-01-11T00:00:14.754Z,3.29
2023-01-11T00:01:17.870Z,1.86
2023-01-11T00:02:21.491Z,3.67
2023-01-11T00:03:24.537Z,3.57
2023-01-11T00:04:27.921Z,3.00
2023-01-11T00:05:30.890Z,2.71
2023-01-11T00:06:34.388Z,2.71
2023-01-11T00:07:38.072Z,2.14
2023-01-11T00:08:41.745Z,1.87
2023-01-11T00:09:44.935Z,2.71
2023-01-11T00:10:47.950Z,1.43
2023-01-11T00:11:51.319Z,3.00
2023-01-11T00:12:54.889Z,2.43
2023-01-11T00:13:58.292Z,3.29
2023-01-11T00:15:01.274Z,2.67
2023-01-11T00:16:04.845Z,1.33
2023-01-11T00:17:07.943Z,1.75
2023-01-11T00:18:11.449Z,2.00
2023-01-11T00:19:14.910Z,2.00
2023-01-11T00:20:18.026Z,2.14
2023-01-11T00:21:21.673Z,3.00
2023-01-11T00:22:25.055Z,4.00
2023-01-11T00:23:28.668Z,4.00
2023-01-11T00:24:31.859Z,3.57
2023-01-11T00:25:35.420Z,2.57
2023-01-11T00:26:38.707Z,2.57
2023-01-11T00:27:42.200Z,2.43
2023-01-11T00:28:45.308Z,2.43
2023-01-11T00:29:48.579Z,1.71
2023-01-11T00:30:51.997Z,2.00
2023-01-11T00:31:55.468Z,2.00
2023-01-11T00:32:59.053Z,2.50
2023-01-11T00:34:02.451Z,2.57
2023-01-11T00:35:06.228Z,2.29
2023-01-11T00:36:10.007Z,2.00
2023-01-11T00:37:13.625Z,3.00
2023-01-11T00:38:17.001Z,4.00
2023-01-11T00:39:20.493Z,2.71
2023-01-11T00:40:23.793Z,3.00
2023-01-11T00:41:27.217Z,2.86
2023-01-11T00:42:30.662Z,1.29
2023-01-11T00:43:34.054Z,1.86
2023-01-11T00:44:37.411Z,2.71
2023-01-11T00:45:40.891Z,3.00
2023-01-11T00:46:44.494Z,2.57
2023-01-11T00:47:47.904Z,2.43
2023-01-11T00:48:51.460Z,3.00
2023-01-11T00:49:55.256Z,3.57
2023-01-11T00:50:58.550Z,2.25
2023-01-11T00:52:01.958Z,2.00
2023-01-11T00:53:05.535Z,3.43
2023-01-11T00:54:09.117Z,3.57
2023-01-11T00:55:12.926Z,2.50
2023-01-11T00:56:16.703Z,0.50
2023-01-11T00:57:20.424Z,1.86
2023-01-11T00:58:23.996Z,2.87
2023-01-11T00:59:27.603Z,3.00
2023-01-11T01:00:31.798Z,4.00
2023-01-11T01:01:35.719Z,3.00
2023-01-11T01:02:39.316Z,2.50
2023-01-11T01:03:42.988Z,2.57
2023-01-11T01:04:46.602Z,2.75
2023-01-11T01:05:50.371Z,3.00
2023-01-11T01:06:54.116Z,2.50
2023-01-11T01:07:57.845Z,2.00
2023-01-11T01:09:01.351Z,2.00
2023-01-11T01:10:05.043Z,2.29
2023-01-11T01:11:08.523Z,2.00
2023-01-11T01:12:12.401Z,1.86
2023-01-11T01:13:16.232Z,3.00
2023-01-11T01:14:19.705Z,4.00
2023-01-11T01:15:23.250Z,3.43
2023-01-11T01:16:27.068Z,2.43
2023-01-11T01:17:30.800Z,2.43
2023-01-11T01:18:34.483Z,3.12
2023-01-11T01:19:38.163Z,3.86
2023-01-11T01:20:41.676Z,4.25
2023-01-11T01:21:45.405Z,3.57
2023-01-11T01:22:48.851Z,2.50
2023-01-11T01:23:52.848Z,3.00
2023-01-11T01:24:56.336Z,3.50
2023-01-11T01:26:00.040Z,3.00
2023-01-11T01:27:03.742Z,2.00
2023-01-11T01:28:07.235Z,2.86
2023-01-11T01:29:10.969Z,4.00
2023-01-11T01:30:14.600Z,4.00
2023-01-11T01:31:18.258Z,4.00
2023-01-11T01:32:21.902Z,4.86
2023-01-11T01:33:25.590Z,4.86
2023-01-11T01:34:28.968Z,3.57
2023-01-11T01:35:32.663Z,3.29
2023-01-11T01:36:36.255Z,4.14
2023-01-11T01:37:39.940Z,3.00
2023-01-11T01:38:43.027Z,2.57
2023-01-11T01:39:46.689Z,2.86
2023-01-11T01:40:50.615Z,3.50
2023-01-11T01:41:54.334Z,3.00
2023-01-11T01:42:58.028Z,2.29
2023-01-11T01:44:01.836Z,1.00
2023-01-11T01:45:05.414Z,2.14
2023-01-11T01:46:08.800Z,3.86
2023-01-11T01:47:12.632Z,3.57
2023-01-11T01:48:16.275Z,2.25
2023-01-11T01:49:19.744Z,3.29
2023-01-11T01:50:23.369Z,2.50
2023-01-11T01:51:26.944Z,3.43
2023-01-11T01:52:30.614Z,3.50
2023-01-11T01:53:34.231Z,3.00
2023-01-11T01:54:37.752Z,4.62
2023-01-11T01:55:41.204Z,15.86
2023-01-11T01:56:44.714Z,12.29
2023-01-11T01:57:47.753Z,4.29
2023-01-11T01:58:51.280Z,5.43
2023-01-11T01:59:54.795Z,7.14
2023-01-11T02:00:58.260Z,8.57
2023-01-11T02:02:02.201Z,2.43
2023-01-11T02:03:08.874Z,2.43
2023-01-11T02:04:12.192Z,3.00
2023-01-11T02:05:15.600Z,2.50
2023-01-11T02:06:19.079Z,2.86
2023-01-11T02:07:22.360Z,3.57
2023-01-11T02:08:25.543Z,3.43
2023-01-11T02:09:29.126Z,3.00
2023-01-11T02:10:32.617Z,1.86
2023-01-11T02:11:35.896Z,2.86
2023-01-11T02:12:39.521Z,3.14
2023-01-11T02:13:42.806Z,3.43
2023-01-11T02:14:46.178Z,4.14
2023-01-11T02:15:49.028Z,2.50
2023-01-11T02:16:52.825Z,2.00
2023-01-11T02:17:56.319Z,5.62
2023-01-11T02:18:59.923Z,4.29
2023-01-11T02:20:03.270Z,3.14
2023-01-11T02:21:06.892Z,4.86
2023-01-11T02:22:10.127Z,4.25
2023-01-11T02:23:13.674Z,3.00
2023-01-11T02:24:17.047Z,2.71
2023-01-11T02:25:20.991Z,3.00
2023-01-11T02:26:24.127Z,2.71
2023-01-11T02:27:27.643Z,1.57
2023-01-11T02:28:31.106Z,2.00
2023-01-11T02:29:34.591Z,2.86
2023-01-11T02:30:37.747Z,3.29
2023-01-11T02:31:41.434Z,3.00
2023-01-11T02:32:44.755Z,2.75
2023-01-11T02:33:48.039Z,2.00
2023-01-11T02:34:51.287Z,2.43
2023-01-11T02:35:54.467Z,3.00
2023-01-11T02:36:57.820Z,3.43
2023-01-11T02:38:01.177Z,3.57
2023-01-11T02:39:04.462Z,2.71
2023-01-11T02:40:07.655Z,3.86
2023-01-11T02:41:11.093Z,4.00
2023-01-11T02:42:14.413Z,2.43
2023-01-11T02:43:17.657Z,3.29
2023-01-11T02:44:21.091Z,3.29
2023-01-11T02:45:24.295Z,2.71
2023-01-11T02:46:27.481Z,2.57
2023-01-11T02:47:31.049Z,2.43
2023-01-11T02:48:34.410Z,3.43
2023-01-11T02:49:37.710Z,3.67
2023-01-11T02:50:40.991Z,7.29
2023-01-11T02:51:44.385Z,6.33
2023-01-11T02:52:48.757Z,2.00
2023-01-11T02:53:52.280Z,2.50
2023-01-11T02:54:56.077Z,2.37
2023-01-11T02:55:59.390Z,1.86
2023-01-11T02:57:03.128Z,3.00
2023-01-11T02:58:06.725Z,2.86
2023-01-11T02:59:10.304Z,1.87
2023-01-11T03:00:13.592Z,2.29
2023-01-11T03:01:17.145Z,2.57
2023-01-11T03:02:20.779Z,2.00
2023-01-11T03:03:24.092Z,2.43
2023-01-11T03:04:27.694Z,2.83
2023-01-11T03:05:31.284Z,2.43
2023-01-11T03:06:34.787Z,3.71
2023-01-11T03:07:38.641Z,4.57
2023-01-11T03:08:42.356Z,4.12
2023-01-11T03:09:45.848Z,3.29
2023-01-11T03:10:49.246Z,2.57
2023-01-11T03:11:52.516Z,2.57
2023-01-11T03:12:56.014Z,2.57
2023-01-11T03:13:59.740Z,2.43
2023-01-11T03:15:03.419Z,2.75
2023-01-11T03:16:06.604Z,2.57
2023-01-11T03:17:10.166Z,3.00
2023-01-11T03:18:13.756Z,3.50
2023-01-11T03:19:17.265Z,2.57
2023-01-11T03:20:20.878Z,3.50
2023-01-11T03:21:24.337Z,3.71
2023-01-11T03:22:27.816Z,2.43
2023-01-11T03:23:31.221Z,2.14
2023-01-11T03:24:34.698Z,2.43
2023-01-11T03:25:38.189Z,2.71
2023-01-11T03:26:41.570Z,2.71
2023-01-11T03:27:45.027Z,3.71
2023-01-11T03:28:48.855Z,2.71
2023-01-11T03:29:52.349Z,2.43
2023-01-11T03:30:56.050Z,2.71
2023-01-11T03:31:59.730Z,3.12
2023-01-11T03:33:03.127Z,2.86
2023-01-11T03:34:06.720Z,2.00
2023-01-11T03:35:10.302Z,2.43
2023-01-11T03:36:14.079Z,4.00
2023-01-11T03:37:17.790Z,3.57
2023-01-11T03:38:21.485Z,2.57
2023-01-11T03:39:24.995Z,2.37
2023-01-11T03:40:28.393Z,2.43
2023-01-11T03:41:32.190Z,3.43
2023-01-11T03:42:35.866Z,3.14
2023-01-11T03:43:39.237Z,2.00
2023-01-11T03:44:42.743Z,2.14
2023-01-11T03:45:46.629Z,2.43
2023-01-11T03:46:50.479Z,3.14
2023-01-11T03:47:54.320Z,2.00
2023-01-11T03:48:57.903Z,2.50
2023-01-11T03:50:01.631Z,3.86
2023-01-11T03:51:05.103Z,4.00
2023-01-11T03:52:08.427Z,3.57
2023-01-11T03:53:11.967Z,2.00
2023-01-11T03:54:18.226Z,3.14
2023-01-11T03:55:22.127Z,2.62
2023-01-11T03:56:25.609Z,2.75
2023-01-11T03:57:28.995Z,2.71
2023-01-11T03:58:32.397Z,3.00
2023-01-11T03:59:35.977Z,3.00
2023-01-11T04:00:39.505Z,2.71
2023-01-11T04:01:43.167Z,2.57
2023-01-11T04:02:45.966Z,2.71
2023-01-11T04:03:48.812Z,3.83
2023-01-11T04:04:51.695Z,3.14
2023-01-11T04:05:54.576Z,2.33
2023-01-11T04:06:57.513Z,4.00
2023-01-11T04:08:00.526Z,3.71
2023-01-11T04:09:03.507Z,2.57
2023-01-11T04:10:06.263Z,3.00
2023-01-11T04:11:08.985Z,3.00
2023-01-11T04:12:12.073Z,3.29
2023-01-11T04:13:15.005Z,3.33
2023-01-11T04:14:17.865Z,4.17
2023-01-11T04:15:20.908Z,2.71
2023-01-11T04:16:23.802Z,2.43
2023-01-11T04:17:26.691Z,2.50
2023-01-11T04:18:29.599Z,3.00
2023-01-11T04:19:32.449Z,2.57
2023-01-11T04:20:35.440Z,2.86
2023-01-11T04:21:38.340Z,3.00
2023-01-11T04:22:41.215Z,4.00
2023-01-11T04:23:44.036Z,3.43
2023-01-11T04:24:46.912Z,3.00
2023-01-11T04:25:49.521Z,4.00
2023-01-11T04:26:52.455Z,3.50
2023-01-11T04:27:55.310Z,4.00
2023-01-11T04:28:58.351Z,3.33
2023-01-11T04:30:01.252Z,3.14
2023-01-11T04:31:04.064Z,4.14
2023-01-11T04:32:07.114Z,3.33
2023-01-11T04:33:09.847Z,4.14
2023-01-11T04:34:12.787Z,4.57
2023-01-11T04:35:15.595Z,3.83
2023-01-11T04:36:18.678Z,3.00
2023-01-11T04:37:21.921Z,3.71
2023-01-11T04:38:24.766Z,4.14
2023-01-11T04:39:27.576Z,3.00
2023-01-11T04:40:30.499Z,3.33
2023-01-11T04:41:33.397Z,2.17
2023-01-11T04:42:36.305Z,2.43
2023-01-11T04:43:39.142Z,3.00
2023-01-11T04:44:42.073Z,2.67
2023-01-11T04:45:45.131Z,3.43
2023-01-11T04:46:47.999Z,4.00
2023-01-11T04:47:50.895Z,3.29
2023-01-11T04:48:53.741Z,2.33
2023-01-11T04:49:56.712Z,4.33
2023-01-11T04:50:59.312Z,4.57
2023-01-11T04:52:01.927Z,2.50
2023-01-11T04:53:04.867Z,2.17
2023-01-11T04:54:07.721Z,3.00
2023-01-11T04:55:10.684Z,3.17
2023-01-11T04:56:13.465Z,4.00
2023-01-11T04:57:16.358Z,3.50
2023-01-11T04:58:19.255Z,2.33
2023-01-11T04:59:22.355Z,2.86
2023-01-11T05:00:25.246Z,4.00
2023-01-11T05:01:28.256Z,3.33
2023-01-11T05:02:31.105Z,2.33
2023-01-11T05:03:33.967Z,3.33
2023-01-11T05:04:36.845Z,4.00
2023-01-11T05:05:39.762Z,3.67
2023-01-11T05:06:42.682Z,2.67
2023-01-11T05:07:45.590Z,3.00
2023-01-11T05:08:48.625Z,4.00
2023-01-11T05:09:51.476Z,3.43
2023-01-11T05:10:54.386Z,3.67
2023-01-11T05:11:57.274Z,2.67
2023-01-11T05:13:00.241Z,2.00
2023-01-11T05:14:03.151Z,3.00
2023-01-11T05:15:06.034Z,2.83
2023-01-11T05:16:09.210Z,3.67
2023-01-11T05:17:12.052Z,3.43
2023-01-11T05:18:15.013Z,2.71
2023-01-11T05:19:18.277Z,3.43
2023-01-11T05:20:21.075Z,3.29
2023-01-11T05:21:23.909Z,2.33
2023-01-11T05:22:26.762Z,2.67
2023-01-11T05:23:29.716Z,3.43
2023-01-11T05:24:32.570Z,3.43
2023-01-11T05:25:35.428Z,2.67
2023-01-11T05:26:38.275Z,2.50
2023-01-11T05:27:41.118Z,2.57
2023-01-11T05:28:44.009Z,2.33
2023-01-11T05:29:47.058Z,3.67
2023-01-11T05:30:49.953Z,2.86
2023-01-11T05:31:52.851Z,2.71
2023-01-11T05:32:55.695Z,1.67
2023-01-11T05:33:58.501Z,1.67
2023-01-11T05:35:01.400Z,3.43
2023-01-11T05:36:04.422Z,3.67
2023-01-11T05:37:07.319Z,2.67
2023-01-11T05:38:10.054Z,1.83
2023-01-11T05:39:12.963Z,2.86
2023-01-11T05:40:15.844Z,3.00
2023-01-11T05:41:18.762Z,2.00
2023-01-11T05:42:22.266Z,2.86
2023-01-11T05:43:25.394Z,3.50
2023-01-11T05:44:28.181Z,2.67
2023-01-11T05:45:31.179Z,2.33
2023-01-11T05:46:33.999Z,2.00
2023-01-11T05:47:37.059Z,1.83
2023-01-11T05:48:40.010Z,2.67
2023-01-11T05:49:42.877Z,2.67
2023-01-11T05:50:45.843Z,2.67
2023-01-11T05:51:48.691Z,3.57
2023-01-11T05:52:51.480Z,2.50
2023-01-11T05:53:54.030Z,2.33
2023-01-11T05:54:56.687Z,3.33
2023-01-11T05:55:59.283Z,4.00
2023-01-11T05:57:01.996Z,3.67
2023-01-11T05:58:04.716Z,3.00
2023-01-11T05:59:07.321Z,3.00
2023-01-11T06:00:10.022Z,3.86
2023-01-11T06:01:12.621Z,4.17
2023-01-11T06:02:15.430Z,3.33
2023-01-11T06:03:18.155Z,2.00
2023-01-11T06:04:20.910Z,2.33
2023-01-11T06:05:23.493Z,2.67
2023-01-11T06:06:26.134Z,4.00
2023-01-11T06:07:28.751Z,4.67
2023-01-11T06:08:31.313Z,2.50
2023-01-11T06:09:33.993Z,3.33
2023-01-11T06:10:36.574Z,3.67
2023-01-11T06:11:39.193Z,3.33
2023-01-11T06:12:41.777Z,3.00
2023-01-11T06:13:44.352Z,2.67
2023-01-11T06:14:47.060Z,2.50
2023-01-11T06:15:49.611Z,3.57
2023-01-11T06:16:52.311Z,3.00
2023-01-11T06:17:54.965Z,2.50
2023-01-11T06:18:57.643Z,3.33
2023-01-11T06:20:00.411Z,4.00
2023-01-11T06:21:03.402Z,4.00
2023-01-11T06:22:06.452Z,2.29
2023-01-11T06:23:09.715Z,2.50
2023-01-11T06:24:12.623Z,2.71
2023-01-11T06:25:15.199Z,2.67
2023-01-11T06:26:18.553Z,2.83
2023-01-11T06:27:21.455Z,3.43
2023-01-11T06:28:24.221Z,3.00
2023-01-11T06:29:27.140Z,3.00
2023-01-11T06:30:30.005Z,2.43
2023-01-11T06:31:32.939Z,1.86
2023-01-11T06:32:36.045Z,2.33
2023-01-11T06:33:39.184Z,2.33
2023-01-11T06:34:42.057Z,2.83
2023-01-11T06:35:44.954Z,2.67
2023-01-11T06:36:47.754Z,2.71
2023-01-11T06:37:51.133Z,2.00
2023-01-11T06:38:54.140Z,2.43
2023-01-11T06:39:57.128Z,3.67
2023-01-11T06:40:59.966Z,3.00
2023-01-11T06:42:02.755Z,4.00
2023-01-11T06:43:05.689Z,3.67
2023-01-11T06:44:08.702Z,3.33
2023-01-11T06:45:11.422Z,4.14
2023-01-11T06:46:14.357Z,4.50
2023-01-11T06:47:17.710Z,3.67
2023-01-11T06:48:20.801Z,4.00
2023-01-11T06:49:23.714Z,4.33
2023-01-11T06:50:26.688Z,3.33
2023-01-11T06:51:29.450Z,2.00
2023-01-11T06:52:32.208Z,2.33
2023-01-11T06:53:35.063Z,3.17
2023-01-11T06:54:38.491Z,3.57
2023-01-11T06:55:41.427Z,3.57
2023-01-11T06:56:44.036Z,2.71
2023-01-11T06:57:47.123Z,3.67
2023-01-11T06:58:49.908Z,4.14
2023-01-11T06:59:52.753Z,3.43
2023-01-11T07:00:55.665Z,3.67
2023-01-11T07:01:58.725Z,2.71
2023-01-11T07:03:01.481Z,3.00
2023-01-11T07:04:04.783Z,2.67
2023-01-11T07:05:07.822Z,3.00
2023-01-11T07:06:10.696Z,3.00
2023-01-11T07:07:13.512Z,2.67
2023-01-11T07:08:16.520Z,2.43
2023-01-11T07:09:19.259Z,3.00
2023-01-11T07:10:22.193Z,3.00
2023-01-11T07:11:24.929Z,3.33
2023-01-11T07:12:27.623Z,3.50
2023-01-11T07:13:30.293Z,4.14
2023-01-11T07:14:32.907Z,4.00
2023-01-11T07:15:35.577Z,2.17
2023-01-11T07:16:38.377Z,2.67
2023-01-11T07:17:41.199Z,3.50
2023-01-11T07:18:45.854Z,3.50
2023-01-11T07:19:47.903Z,4.00
2023-01-11T07:20:50.525Z,3.33
2023-01-11T07:21:53.201Z,3.00
2023-01-11T07:22:55.829Z,3.33
2023-01-11T07:23:58.734Z,4.00
2023-01-11T07:25:01.437Z,4.83
2023-01-11T07:26:04.062Z,2.83
2023-01-11T07:27:06.896Z,2.00
2023-01-11T07:28:09.712Z,1.57
2023-01-11T07:29:12.536Z,1.67
2023-01-11T07:30:15.234Z,3.00
2023-01-11T07:31:18.212Z,3.00
2023-01-11T07:32:21.453Z,3.00
2023-01-11T07:33:24.279Z,2.57
2023-01-11T07:34:27.126Z,1.67
2023-01-11T07:35:29.801Z,2.00
2023-01-11T07:36:32.823Z,2.33
2023-01-11T07:37:35.673Z,2.29
2023-01-11T07:38:38.642Z,1.33
2023-01-11T07:39:43.892Z,1.50
2023-01-11T07:40:45.719Z,1.75
2023-01-11T07:41:48.668Z,2.83
2023-01-11T07:42:51.331Z,2.86
2023-01-11T07:43:54.140Z,1.17
2023-01-11T07:44:56.990Z,1.86
2023-01-11T07:46:00.016Z,3.17
2023-01-11T07:47:03.023Z,2.33
2023-01-11T07:48:05.893Z,2.00
2023-01-11T07:49:08.754Z,3.14
2023-01-11T07:50:11.505Z,2.50
2023-01-11T07:51:14.505Z,2.00
2023-01-11T07:52:17.353Z,3.00
2023-01-11T07:53:20.182Z,2.50
2023-01-11T07:54:23.105Z,2.00
2023-01-11T07:55:26.056Z,2.00
2023-01-11T07:56:28.905Z,2.33
2023-01-11T07:57:31.721Z,2.67
2023-01-11T07:58:34.460Z,3.00
2023-01-11T07:59:37.434Z,3.67
2023-01-11T08:00:40.255Z,3.86
2023-01-11T08:01:43.063Z,4.50
2023-01-11T08:02:46.055Z,3.00
2023-01-11T08:03:49.119Z,2.57
2023-01-11T08:04:52.030Z,1.57
2023-01-11T08:05:54.937Z,2.33
2023-01-11T08:06:57.893Z,2.17
2023-01-11T08:08:00.958Z,2.43
2023-01-11T08:09:03.860Z,2.71
2023-01-11T08:10:06.787Z,2.00
2023-01-11T08:11:09.443Z,2.67
2023-01-11T08:12:12.462Z,3.67
2023-01-11T08:13:15.076Z,2.67
2023-01-11T08:14:18.070Z,2.71
2023-01-11T08:15:22.936Z,2.67
2023-01-11T08:16:25.163Z,2.00
2023-01-11T08:17:28.410Z,2.67
2023-01-11T08:18:31.516Z,2.71
2023-01-11T08:19:34.624Z,2.67
2023-01-11T08:20:37.800Z,2.33
2023-01-11T08:21:40.677Z,3.00
2023-01-11T08:22:43.912Z,2.29
2023-01-11T08:23:47.083Z,2.43
2023-01-11T08:24:50.121Z,3.43
2023-01-11T08:25:53.335Z,3.14
2023-01-11T08:26:56.673Z,2.57
2023-01-11T08:28:00.035Z,2.43
2023-01-11T08:29:03.369Z,2.43
2023-01-11T08:30:06.572Z,3.43
2023-01-11T08:31:09.989Z,4.00
2023-01-11T08:32:13.166Z,3.57
2023-01-11T08:33:16.308Z,3.00
2023-01-11T08:34:19.504Z,3.00
2023-01-11T08:35:22.669Z,3.50
2023-01-11T08:36:25.929Z,3.00
2023-01-11T08:37:29.139Z,3.00
2023-01-11T08:38:32.275Z,3.57
2023-01-11T08:39:35.201Z,4.00
2023-01-11T08:40:38.120Z,3.67
2023-01-11T08:41:41.366Z,3.43
2023-01-11T08:42:44.570Z,3.57
2023-01-11T08:43:47.847Z,2.43
2023-01-11T08:44:51.206Z,2.43
2023-01-11T08:45:54.597Z,2.86
2023-01-11T08:46:57.815Z,3.17
2023-01-11T08:48:01.188Z,2.00
2023-01-11T08:49:04.148Z,2.00
2023-01-11T08:50:08.087Z,2.00
2023-01-11T08:51:11.043Z,2.86
2023-01-11T08:52:14.083Z,3.00
2023-01-11T08:53:17.275Z,2.00
2023-01-11T08:54:20.353Z,4.43
2023-01-11T08:55:23.478Z,4.57
2023-01-11T08:56:26.795Z,3.67
2023-01-11T08:57:29.938Z,2.43
2023-01-11T08:58:33.146Z,3.00
2023-01-11T08:59:36.291Z,3.43
2023-01-11T09:00:39.368Z,3.67
2023-01-11T09:01:42.807Z,4.00
2023-01-11T09:02:46.106Z,4.00
2023-01-11T09:03:49.726Z,4.14
2023-01-11T09:04:52.791Z,4.14
2023-01-11T09:05:56.037Z,4.43
2023-01-11T09:06:58.806Z,4.29
2023-01-11T09:08:01.965Z,2.33
2023-01-11T09:09:04.872Z,3.33
2023-01-11T09:10:07.555Z,3.67
2023-01-11T09:11:10.208Z,4.33
2023-01-11T09:12:13.144Z,4.71
2023-01-11T09:13:15.865Z,4.00
2023-01-11T09:14:18.553Z,4.43
2023-01-11T09:15:21.379Z,5.00
2023-01-11T09:16:24.013Z,4.17
2023-01-11T09:17:26.646Z,3.00
2023-01-11T09:18:29.237Z,2.83
2023-01-11T09:19:31.944Z,4.33
2023-01-11T09:20:34.573Z,4.71
2023-01-11T09:21:37.244Z,3.67
2023-01-11T09:22:40.005Z,3.00
2023-01-11T09:23:42.830Z,3.83
2023-01-11T09:24:45.723Z,5.50
2023-01-11T09:25:48.418Z,4.86
2023-01-11T09:26:51.205Z,4.00
2023-01-11T09:27:54.489Z,4.86
2023-01-11T09:28:57.667Z,6.29
2023-01-11T09:30:00.682Z,6.57
2023-01-11T09:31:03.529Z,6.67
2023-01-11T09:32:06.517Z,5.50
2023-01-11T09:33:09.712Z,3.86
2023-01-11T09:34:12.739Z,3.86
2023-01-11T09:35:15.840Z,5.00
2023-01-11T09:36:19.058Z,4.57
2023-01-11T09:37:22.224Z,4.43
2023-01-11T09:38:25.190Z,4.57
2023-01-11T09:39:27.841Z,4.43
2023-01-11T09:40:30.696Z,3.67
2023-01-11T09:41:33.351Z,4.29
2023-01-11T09:42:36.000Z,5.00
2023-01-11T09:43:38.617Z,2.83
2023-01-11T09:44:41.281Z,4.17
2023-01-11T09:45:43.953Z,6.67
2023-01-11T09:46:46.671Z,3.33
2023-01-11T09:47:49.386Z,4.00
2023-01-11T09:48:52.035Z,5.00
2023-01-11T09:49:54.775Z,5.33
2023-01-11T09:50:57.450Z,5.17
2023-01-11T09:52:00.285Z,5.33
2023-01-11T09:53:03.154Z,4.33
2023-01-11T09:54:06.016Z,4.33
2023-01-11T09:55:08.817Z,4.00
2023-01-11T09:56:11.867Z,4.00
2023-01-11T09:57:14.701Z,3.86
2023-01-11T09:58:17.520Z,3.67
2023-01-11T09:59:20.427Z,4.86
2023-01-11T10:00:23.353Z,5.33
2023-01-11T10:01:26.309Z,3.67
2023-01-11T10:02:29.218Z,4.43
2023-01-11T10:03:32.215Z,5.33
2023-01-11T10:04:35.121Z,4.43
2023-01-11T10:05:38.099Z,4.17
2023-01-11T10:06:40.925Z,4.33
2023-01-11T10:07:43.808Z,4.14
2023-01-11T10:18:29.798Z,4.50
2023-01-11T10:18:30.184Z,4.50
2023-01-11T10:18:37.597Z,4.75
2023-01-11T10:18:57.907Z,4.50
2023-01-11T10:19:41.320Z,4.50
2023-01-11T10:20:44.072Z,4.00
2023-01-11T10:21:46.988Z,5.00
2023-01-11T10:22:49.965Z,4.29
2023-01-11T10:23:52.671Z,5.00
2023-01-11T10:24:55.168Z,4.17
2023-01-11T10:25:57.880Z,4.33
2023-01-11T10:27:00.874Z,3.67
2023-01-11T10:28:03.789Z,4.00
2023-01-11T10:29:06.617Z,4.57
2023-01-11T10:30:09.368Z,4.67
2023-01-11T10:31:12.159Z,3.33
2023-01-11T10:32:15.031Z,4.33
2023-01-11T10:33:17.951Z,5.00
2023-01-11T10:34:20.832Z,4.50
2023-01-11T10:35:23.624Z,6.00
2023-01-11T10:36:27.620Z,6.33
2023-01-11T10:37:30.482Z,4.00
2023-01-11T10:38:33.118Z,4.71
2023-01-11T10:39:35.751Z,6.00
2023-01-11T10:40:38.374Z,4.33
2023-01-11T10:41:42.930Z,5.00
2023-01-11T10:42:44.823Z,4.57
2023-01-11T10:43:47.792Z,4.00
2023-01-11T10:44:50.394Z,5.43
2023-01-11T10:45:53.105Z,5.50
2023-01-11T10:46:55.739Z,6.29
2023-01-11T10:47:58.576Z,4.17
2023-01-11T10:49:01.788Z,6.33
2023-01-11T10:50:06.201Z,5.00
2023-01-11T10:51:08.480Z,5.12
2023-01-11T10:53:14.255Z,3.67
2023-01-11T10:54:16.936Z,4.50
2023-01-11T10:55:19.587Z,4.00
2023-01-11T10:56:22.281Z,4.00
2023-01-11T10:57:24.873Z,6.00
2023-01-11T10:58:28.095Z,6.50
2023-01-11T10:59:30.731Z,4.83
2023-01-11T11:00:33.681Z,3.67
2023-01-11T11:01:36.344Z,5.00
2023-01-11T11:02:38.937Z,3.83
2023-01-11T11:03:41.716Z,4.50
2023-01-11T11:04:44.559Z,5.00
2023-01-11T11:05:47.433Z,4.00
2023-01-11T11:06:50.331Z,4.67
2023-01-11T11:07:53.285Z,4.83
2023-01-11T11:08:56.106Z,4.67
2023-01-11T11:09:58.976Z,4.86
2023-01-11T11:11:01.957Z,5.33
2023-01-11T11:12:04.849Z,4.71
2023-01-11T11:13:07.791Z,4.17
2023-01-11T11:14:10.617Z,4.00
2023-01-11T11:15:13.529Z,4.43
2023-01-11T11:16:16.529Z,5.50
2023-01-11T11:17:19.341Z,5.14
2023-01-11T11:18:22.173Z,3.83
2023-01-11T11:19:25.119Z,3.83
2023-01-11T11:20:27.958Z,4.57
2023-01-11T11:21:30.914Z,4.67
2023-01-11T11:22:33.796Z,5.43
2023-01-11T11:23:37.091Z,4.33
2023-01-11T11:24:39.992Z,4.71
2023-01-11T11:25:43.454Z,5.00
2023-01-11T11:26:46.812Z,3.00
2023-01-11T11:27:49.811Z,3.33
2023-01-11T11:28:52.730Z,3.86
2023-01-11T11:29:55.560Z,4.71
2023-01-11T11:30:58.466Z,5.17
2023-01-11T11:32:01.215Z,4.43
2023-01-11T11:33:04.092Z,5.00
2023-01-11T11:34:06.732Z,4.57
2023-01-11T11:35:09.552Z,4.67
2023-01-11T11:36:12.440Z,6.50
2023-01-11T11:37:15.553Z,4.17
2023-01-11T11:38:18.429Z,5.00
2023-01-11T11:39:21.264Z,6.00
2023-01-11T11:40:24.131Z,4.33
2023-01-11T11:41:26.956Z,3.33
2023-01-11T11:42:29.895Z,4.33
2023-01-11T11:43:32.773Z,5.00
2023-01-11T11:44:35.594Z,4.86
2023-01-11T11:45:38.514Z,5.33
2023-01-11T11:46:41.387Z,3.57
2023-01-11T11:47:44.260Z,3.50
2023-01-11T11:48:47.154Z,4.29
2023-01-11T11:49:50.027Z,4.83
2023-01-11T11:50:52.683Z,3.83
2023-01-11T11:51:55.466Z,4.33
2023-01-11T11:52:58.322Z,4.86
2023-01-11T11:54:01.190Z,5.67
2023-01-11T11:55:03.997Z,5.43
2023-01-11T11:56:06.761Z,5.67
2023-01-11T11:57:09.557Z,4.57
2023-01-11T11:58:12.528Z,4.67
2023-01-11T11:59:15.156Z,5.00
2023-01-11T12:00:18.081Z,4.17
2023-01-11T12:01:20.885Z,3.71
2023-01-11T12:02:23.745Z,3.50
2023-01-11T12:03:28.226Z,4.14
2023-01-11T12:04:30.735Z,5.00
2023-01-11T12:05:33.670Z,4.00
2023-01-11T12:06:36.544Z,3.83
2023-01-11T12:07:53.587Z,5.00
2023-01-11T12:08:43.413Z,4.25
2023-01-11T12:09:46.342Z,4.33
2023-01-11T12:10:49.231Z,6.14
2023-01-11T12:11:53.777Z,6.83
2023-01-11T12:12:56.635Z,5.75
2023-01-11T12:13:59.838Z,4.33
2023-01-11T12:15:02.440Z,4.43
2023-01-11T12:16:05.117Z,4.67
2023-01-11T12:17:07.756Z,6.33
2023-01-11T12:18:10.314Z,5.67
2023-01-11T12:19:12.941Z,3.67
2023-01-11T12:20:15.592Z,5.67
2023-01-11T12:21:18.874Z,4.71
2023-01-11T12:22:21.497Z,5.50
2023-01-11T12:23:24.337Z,5.00
2023-01-11T12:24:28.234Z,4.57
2023-01-11T12:25:30.908Z,4.50
2023-01-11T12:26:33.547Z,4.00
2023-01-11T12:27:36.156Z,3.83
2023-01-11T12:28:38.849Z,4.67
2023-01-11T12:29:41.690Z,6.86
2023-01-11T12:30:44.589Z,8.00
2023-01-11T12:31:47.517Z,6.29
2023-01-11T12:32:50.473Z,4.00
2023-01-11T12:33:53.350Z,4.00
2023-01-11T12:34:56.217Z,4.43
2023-01-11T12:35:59.053Z,4.67
2023-01-11T12:37:01.841Z,3.86
2023-01-11T12:38:04.720Z,5.17
2023-01-11T12:39:07.587Z,4.86
2023-01-11T12:40:10.458Z,4.50
2023-01-11T12:41:13.333Z,4.00
2023-01-11T12:42:16.201Z,3.17
2023-01-11T12:43:19.082Z,3.67
2023-01-11T12:44:21.961Z,5.14
2023-01-11T12:45:24.783Z,3.17
2023-01-11T12:46:27.741Z,5.00
2023-01-11T12:47:30.709Z,4.67
2023-01-11T12:48:33.713Z,3.83
2023-01-11T12:49:36.557Z,5.43
2023-01-11T12:51:42.835Z,4.12
2023-01-11T12:52:45.681Z,4.00
2023-01-11T12:53:48.532Z,4.71
2023-01-11T12:54:51.400Z,5.17
2023-01-11T12:55:54.248Z,4.57
2023-01-11T12:56:57.113Z,4.17
2023-01-11T12:58:00.067Z,4.71
2023-01-11T12:59:02.883Z,4.67
2023-01-11T13:00:05.752Z,3.67
2023-01-11T13:01:08.835Z,3.14
2023-01-11T13:02:11.716Z,4.00
2023-01-11T13:03:14.647Z,6.00
2023-01-11T13:04:17.474Z,6.67
2023-01-11T13:05:20.067Z,4.33
2023-01-11T13:06:23.587Z,4.33
2023-01-11T13:07:26.392Z,4.57
2023-01-11T13:08:29.265Z,5.00
2023-01-11T13:09:32.035Z,4.00
2023-01-11T13:10:34.771Z,3.00
2023-01-11T13:11:37.486Z,3.67
2023-01-11T13:12:40.256Z,4.50
2023-01-11T13:13:43.112Z,4.43
2023-01-11T13:14:45.926Z,5.00
2023-01-11T13:15:48.718Z,3.67
2023-01-11T13:16:51.645Z,3.33
2023-01-11T13:17:54.480Z,5.43
2023-01-11T13:18:57.756Z,6.00
2023-01-11T13:20:00.570Z,4.50
2023-01-11T13:21:04.412Z,3.67
2023-01-11T13:22:07.530Z,4.12
2023-01-11T13:23:10.138Z,4.00
2023-01-11T13:24:12.903Z,4.50
2023-01-11T13:25:15.754Z,4.67
2023-01-11T13:26:18.555Z,3.43
2023-01-11T13:27:21.458Z,4.00
2023-01-11T13:28:24.645Z,3.57
2023-01-11T13:29:27.437Z,4.29
2023-01-11T13:30:30.268Z,5.83
2023-01-11T13:31:33.182Z,4.86
2023-01-11T13:32:37.317Z,5.00
2023-01-11T13:33:40.069Z,4.71
2023-01-11T13:34:42.821Z,4.67
2023-01-11T13:35:45.689Z,3.67
2023-01-11T13:36:48.501Z,4.83
2023-01-11T13:37:51.219Z,4.50
2023-01-11T13:38:53.934Z,3.00
2023-01-11T13:39:56.712Z,4.50
2023-01-11T13:40:59.539Z,5.17
2023-01-11T13:42:02.360Z,3.33
2023-01-11T13:43:05.176Z,4.00
2023-01-11T13:44:07.972Z,3.67
2023-01-11T13:45:10.740Z,4.00
2023-01-11T13:46:13.616Z,4.33
2023-01-11T13:47:16.199Z,4.29
2023-01-11T13:48:18.791Z,4.00
2023-01-11T13:49:21.387Z,3.33
2023-01-11T13:50:24.031Z,4.00
2023-01-11T13:51:26.640Z,3.57
2023-01-11T13:52:29.245Z,3.17
2023-01-11T13:53:31.809Z,2.50
2023-01-11T13:54:34.316Z,2.83
2023-01-11T13:55:36.915Z,3.00
2023-01-11T13:56:39.506Z,3.67
2023-01-11T13:57:42.066Z,5.33
2023-01-11T13:58:44.655Z,4.83
2023-01-11T13:59:47.542Z,4.33
2023-01-11T14:00:50.388Z,5.00
2023-01-11T14:01:53.140Z,5.33
2023-01-11T14:02:55.989Z,4.17
2023-01-11T14:03:58.858Z,3.17
2023-01-11T14:05:01.762Z,3.83
2023-01-11T14:06:04.432Z,4.86
2023-01-11T14:07:07.356Z,3.67
2023-01-11T14:08:10.198Z,4.57